createdAt,value
2017-07-16T00:00:08.551Z,99.99
2017-07-16T00:01:09.234Z,99.99
2017-07-16T00:02:09.919Z,99.90
2017-07-16T00:03:10.608Z,99.99
2017-07-16T00:04:11.544Z,99.99
2017-07-16T00:05:12.224Z,99.99
2017-07-16T00:06:12.912Z,99.99
2017-07-16T00:07:13.596Z,99.99
2017-07-16T00:08:14.282Z,99.99
2017-07-16T00:09:15.161Z,99.99
2017-07-16T00:10:15.843Z,99.99
2017-07-16T00:11:16.526Z,99.76
2017-07-16T00:12:17.215Z,99.76
2017-07-16T00:13:17.895Z,99.99
2017-07-16T00:14:18.830Z,99.66
2017-07-16T00:15:19.513Z,99.57
2017-07-16T00:16:20.202Z,99.99
2017-07-16T00:17:20.890Z,99.99
2017-07-16T00:18:21.580Z,99.99
2017-07-16T00:19:22.515Z,99.85
2017-07-16T00:20:23.197Z,99.85
2017-07-16T00:21:23.880Z,99.99
2017-07-16T00:22:24.566Z,99.99
2017-07-16T00:23:25.255Z,99.99
2017-07-16T00:24:26.189Z,99.99
2017-07-16T00:25:26.875Z,99.99
2017-07-16T00:26:27.554Z,99.99
2017-07-16T00:27:28.239Z,99.99
2017-07-16T00:28:28.923Z,99.99
2017-07-16T00:29:29.875Z,99.99
2017-07-16T00:30:30.640Z,99.99
2017-07-16T00:31:31.322Z,99.99
2017-07-16T00:32:32.004Z,99.99
2017-07-16T00:33:32.691Z,99.99
2017-07-16T00:34:33.626Z,99.99
2017-07-16T00:35:34.311Z,99.99
2017-07-16T00:36:35.002Z,99.99
2017-07-16T00:37:35.684Z,99.99
2017-07-16T00:38:36.373Z,99.99
2017-07-16T00:39:37.315Z,99.99
2017-07-16T00:40:38.001Z,99.99
2017-07-16T00:41:38.682Z,99.99
2017-07-16T00:42:39.367Z,99.99
2017-07-16T00:43:40.055Z,99.99
2017-07-16T00:44:40.993Z,99.99
2017-07-16T00:45:41.676Z,99.99
2017-07-16T00:46:42.365Z,99.99
2017-07-16T00:47:43.049Z,99.99
2017-07-16T00:48:43.730Z,99.99
2017-07-16T00:49:44.690Z,99.99
2017-07-16T00:50:45.367Z,99.99
2017-07-16T00:51:46.049Z,99.99
2017-07-16T00:52:46.732Z,99.99
2017-07-16T00:53:47.417Z,99.99
2017-07-16T00:54:48.100Z,99.99
2017-07-16T00:55:48.794Z,99.99
2017-07-16T00:56:49.477Z,99.99
2017-07-16T00:57:50.174Z,99.99
2017-07-16T00:58:50.861Z,99.99
2017-07-16T00:59:51.793Z,99.99
2017-07-16T01:00:52.477Z,99.99
2017-07-16T01:01:53.161Z,99.99
2017-07-16T01:02:53.847Z,99.99
2017-07-16T01:03:54.539Z,99.99
2017-07-16T01:04:55.474Z,99.99
2017-07-16T01:05:56.155Z,99.99
2017-07-16T01:06:56.837Z,99.99
2017-07-16T01:07:57.530Z,99.99
2017-07-16T01:08:58.216Z,99.99
2017-07-16T01:09:59.147Z,99.99
2017-07-16T01:10:59.842Z,99.99
2017-07-16T01:12:00.523Z,99.99
2017-07-16T01:13:01.203Z,99.99
2017-07-16T01:14:01.885Z,99.99
2017-07-16T01:15:02.819Z,99.99
2017-07-16T01:16:03.500Z,99.99
2017-07-16T01:17:04.182Z,99.99
2017-07-16T01:18:04.869Z,99.99
2017-07-16T01:19:05.550Z,99.99
2017-07-16T01:20:06.479Z,99.99
2017-07-16T01:21:07.159Z,99.99
2017-07-16T01:22:07.841Z,99.99
2017-07-16T01:23:08.528Z,99.99
2017-07-16T01:24:09.214Z,99.99
2017-07-16T01:25:10.149Z,99.99
2017-07-16T01:26:10.831Z,99.99
2017-07-16T01:27:11.511Z,99.99
2017-07-16T01:28:12.204Z,99.99
2017-07-16T01:29:12.888Z,99.99
2017-07-16T01:30:13.821Z,99.99
2017-07-16T01:31:14.502Z,99.99
2017-07-16T01:32:15.183Z,99.99
2017-07-16T01:33:15.869Z,99.99
2017-07-16T01:34:16.559Z,99.99
2017-07-16T01:35:17.490Z,99.99
2017-07-16T01:36:18.177Z,99.99
2017-07-16T01:37:18.858Z,99.99
2017-07-16T01:38:19.544Z,99.99
2017-07-16T01:39:20.238Z,99.99
2017-07-16T01:40:21.174Z,99.99
2017-07-16T01:41:21.857Z,99.99
2017-07-16T01:42:22.542Z,99.99
2017-07-16T01:43:23.222Z,99.99
2017-07-16T01:44:23.908Z,99.99
2017-07-16T01:45:24.848Z,99.99
2017-07-16T01:46:25.528Z,99.99
2017-07-16T01:47:26.211Z,99.99
2017-07-16T01:48:26.891Z,99.99
2017-07-16T01:49:27.577Z,99.99
2017-07-16T01:50:28.509Z,99.99
2017-07-16T01:51:29.189Z,99.99
2017-07-16T01:52:29.879Z,99.99
2017-07-16T01:53:30.560Z,99.99
2017-07-16T01:54:31.245Z,99.99
2017-07-16T01:55:32.177Z,99.99
2017-07-16T01:56:32.865Z,99.99
2017-07-16T01:57:33.545Z,99.99
2017-07-16T01:58:34.228Z,99.99
2017-07-16T01:59:34.910Z,99.99
2017-07-16T02:00:35.844Z,99.99
2017-07-16T02:01:36.534Z,99.99
2017-07-16T02:02:37.230Z,99.99
2017-07-16T02:03:37.907Z,99.99
2017-07-16T02:04:38.590Z,99.99
2017-07-16T02:05:39.523Z,99.99
2017-07-16T02:06:40.204Z,99.99
2017-07-16T02:07:40.886Z,99.99
2017-07-16T02:08:41.575Z,99.99
2017-07-16T02:09:42.258Z,99.99
2017-07-16T02:10:43.188Z,99.99
2017-07-16T02:11:43.867Z,99.99
2017-07-16T02:12:44.554Z,99.99
2017-07-16T02:13:45.245Z,99.99
2017-07-16T02:14:45.931Z,99.99
2017-07-16T02:15:46.862Z,99.99
2017-07-16T02:16:47.542Z,99.99
2017-07-16T02:17:48.232Z,99.99
2017-07-16T02:18:48.929Z,99.99
2017-07-16T02:19:49.597Z,99.99
2017-07-16T02:20:50.531Z,99.99
2017-07-16T02:21:51.212Z,99.99
2017-07-16T02:22:51.896Z,99.99
2017-07-16T02:23:52.578Z,99.99
2017-07-16T02:24:53.259Z,99.99
2017-07-16T02:25:53.942Z,99.99
2017-07-16T02:26:54.623Z,99.99
2017-07-16T02:27:55.310Z,99.99
2017-07-16T02:28:56.002Z,99.99
2017-07-16T02:29:56.676Z,99.99
2017-07-16T02:30:57.609Z,99.99
2017-07-16T02:31:58.291Z,99.99
2017-07-16T02:32:58.978Z,99.99
2017-07-16T02:33:59.658Z,99.99
2017-07-16T02:35:00.339Z,99.99
2017-07-16T02:36:01.271Z,99.99
2017-07-16T02:37:01.953Z,99.99
2017-07-16T02:38:02.634Z,99.99
2017-07-16T02:39:03.317Z,99.99
2017-07-16T02:40:03.997Z,99.99
2017-07-16T02:41:04.926Z,99.99
2017-07-16T02:42:05.606Z,99.99
2017-07-16T02:43:06.289Z,99.99
2017-07-16T02:44:06.973Z,99.99
2017-07-16T02:45:07.661Z,99.99
2017-07-16T02:46:08.590Z,99.99
2017-07-16T02:47:09.275Z,99.99
2017-07-16T02:48:09.959Z,99.99
2017-07-16T02:49:10.642Z,99.99
2017-07-16T02:50:11.325Z,99.99
2017-07-16T02:51:12.257Z,99.99
2017-07-16T02:52:12.940Z,99.99
2017-07-16T02:53:13.627Z,99.99
2017-07-16T02:54:14.313Z,99.99
2017-07-16T02:55:15.018Z,99.99
2017-07-16T02:56:15.930Z,99.99
2017-07-16T02:57:16.609Z,99.99
2017-07-16T02:58:17.292Z,99.99
2017-07-16T02:59:17.974Z,99.99
2017-07-16T03:00:18.659Z,99.99
2017-07-16T03:01:19.595Z,99.99
2017-07-16T03:02:20.277Z,99.99
2017-07-16T03:03:20.980Z,99.99
2017-07-16T03:04:21.651Z,99.99
2017-07-16T03:05:22.337Z,99.99
2017-07-16T03:06:23.270Z,99.99
2017-07-16T03:07:23.953Z,99.99
2017-07-16T03:08:24.637Z,99.99
2017-07-16T03:09:25.323Z,99.99
2017-07-16T03:10:26.011Z,99.99
2017-07-16T03:11:26.943Z,99.99
2017-07-16T03:12:27.621Z,99.99
2017-07-16T03:13:28.306Z,99.99
2017-07-16T03:14:28.991Z,99.99
2017-07-16T03:15:29.681Z,99.99
2017-07-16T03:16:30.613Z,99.99
2017-07-16T03:17:31.295Z,99.99
2017-07-16T03:18:31.977Z,99.99
2017-07-16T03:19:32.657Z,99.99
2017-07-16T03:20:33.339Z,99.99
2017-07-16T03:21:34.273Z,99.99
2017-07-16T03:22:34.952Z,99.99
2017-07-16T03:23:35.636Z,99.99
2017-07-16T03:24:36.319Z,99.99
2017-07-16T03:25:37.001Z,99.99
2017-07-16T03:26:37.933Z,99.99
2017-07-16T03:27:38.614Z,99.99
2017-07-16T03:28:39.304Z,99.99
2017-07-16T03:29:39.988Z,99.99
2017-07-16T03:30:40.671Z,99.99
2017-07-16T03:31:41.354Z,99.99
2017-07-16T03:32:42.041Z,99.99
2017-07-16T03:33:42.723Z,99.99
2017-07-16T03:34:43.407Z,99.99
2017-07-16T03:35:44.090Z,99.99
2017-07-16T03:36:45.024Z,99.99
2017-07-16T03:37:45.711Z,99.99
2017-07-16T03:38:46.397Z,99.99
2017-07-16T03:39:47.111Z,99.99
2017-07-16T03:40:47.768Z,99.99
2017-07-16T03:41:48.703Z,99.99
2017-07-16T03:42:49.390Z,99.99
2017-07-16T03:43:50.075Z,99.99
2017-07-16T03:44:50.767Z,99.99
2017-07-16T03:45:51.451Z,99.99
2017-07-16T03:46:52.387Z,99.99
2017-07-16T03:47:53.071Z,99.99
2017-07-16T03:48:53.761Z,99.99
2017-07-16T03:49:54.444Z,99.99
2017-07-16T03:50:55.127Z,99.99
2017-07-16T03:51:56.062Z,99.99
2017-07-16T03:52:56.749Z,99.99
2017-07-16T03:53:57.434Z,99.99
2017-07-16T03:54:58.156Z,99.99
2017-07-16T03:55:58.819Z,99.99
2017-07-16T03:56:59.757Z,99.99
2017-07-16T03:58:00.451Z,99.99
2017-07-16T03:59:01.138Z,99.99
2017-07-16T04:00:01.821Z,99.99
2017-07-16T04:01:02.512Z,99.99
2017-07-16T04:02:03.451Z,99.99
2017-07-16T04:03:04.137Z,99.99
2017-07-16T04:04:04.823Z,99.99
2017-07-16T04:05:05.512Z,99.99
2017-07-16T04:06:06.203Z,99.99
2017-07-16T04:07:07.138Z,99.99
2017-07-16T04:08:07.822Z,99.99
2017-07-16T04:09:08.509Z,99.99
2017-07-16T04:10:09.192Z,99.99
2017-07-16T04:11:09.890Z,99.99
2017-07-16T04:12:10.825Z,99.99
2017-07-16T04:13:11.512Z,99.99
2017-07-16T04:14:12.199Z,99.99
2017-07-16T04:15:12.892Z,99.99
2017-07-16T04:16:13.577Z,99.99
2017-07-16T04:17:14.514Z,99.99
2017-07-16T04:18:15.200Z,99.99
2017-07-16T04:19:15.888Z,99.99
2017-07-16T04:20:16.571Z,99.99
2017-07-16T04:21:17.256Z,99.99
2017-07-16T04:22:18.200Z,99.99
2017-07-16T04:23:18.885Z,99.99
2017-07-16T04:24:19.572Z,99.99
2017-07-16T04:25:20.259Z,99.99
2017-07-16T04:26:20.984Z,99.99
2017-07-16T04:27:21.878Z,99.99
2017-07-16T04:28:22.567Z,99.99
2017-07-16T04:29:23.258Z,99.99
2017-07-16T04:30:23.948Z,99.99
2017-07-16T04:31:24.644Z,99.99
2017-07-16T04:32:25.585Z,99.99
2017-07-16T04:33:26.271Z,99.99
2017-07-16T04:34:26.963Z,99.99
2017-07-16T04:35:27.654Z,99.99
2017-07-16T04:36:28.348Z,99.99
2017-07-16T04:37:29.035Z,99.99
2017-07-16T04:38:29.725Z,99.99
2017-07-16T04:39:30.410Z,99.99
2017-07-16T04:40:31.101Z,99.99
2017-07-16T04:41:31.791Z,99.99
2017-07-16T04:42:32.731Z,99.99
2017-07-16T04:43:33.425Z,99.99
2017-07-16T04:44:34.114Z,99.99
2017-07-16T04:45:34.806Z,99.99
2017-07-16T04:46:35.500Z,99.99
2017-07-16T04:47:36.442Z,99.99
2017-07-16T04:48:37.129Z,99.99
2017-07-16T04:49:37.816Z,99.99
2017-07-16T04:50:38.501Z,99.99
2017-07-16T04:51:39.189Z,99.99
2017-07-16T04:52:40.180Z,99.99
2017-07-16T04:53:40.864Z,99.99
2017-07-16T04:54:41.555Z,99.99
2017-07-16T04:55:42.241Z,99.99
2017-07-16T04:56:42.931Z,99.99
2017-07-16T04:57:43.870Z,99.99
2017-07-16T04:58:44.561Z,99.99
2017-07-16T04:59:45.260Z,99.99
2017-07-16T05:00:45.964Z,99.99
2017-07-16T05:01:46.659Z,99.99
2017-07-16T05:02:47.599Z,99.99
2017-07-16T05:03:48.287Z,99.99
2017-07-16T05:04:48.992Z,99.99
2017-07-16T05:05:49.685Z,99.99
2017-07-16T05:06:50.377Z,99.99
2017-07-16T05:07:51.317Z,99.99
2017-07-16T05:08:52.007Z,99.99
2017-07-16T05:09:52.696Z,99.99
2017-07-16T05:10:53.385Z,99.99
2017-07-16T05:11:54.071Z,99.99
2017-07-16T05:12:55.017Z,99.99
2017-07-16T05:13:55.707Z,99.99
2017-07-16T05:14:56.395Z,99.99
2017-07-16T05:15:57.083Z,99.99
2017-07-16T05:16:57.770Z,99.99
2017-07-16T05:17:58.707Z,99.99
2017-07-16T05:18:59.403Z,99.99
2017-07-16T05:20:00.092Z,99.99
2017-07-16T05:21:00.786Z,99.99
2017-07-16T05:22:01.474Z,99.99
2017-07-16T05:23:02.413Z,99.99
2017-07-16T05:24:03.100Z,99.99
2017-07-16T05:25:03.792Z,99.99
2017-07-16T05:26:04.478Z,99.99
2017-07-16T05:27:05.167Z,99.99
2017-07-16T05:28:06.106Z,99.99
2017-07-16T05:29:06.818Z,99.99
2017-07-16T05:30:07.498Z,99.99
2017-07-16T05:31:08.185Z,99.99
2017-07-16T05:32:08.880Z,99.99
2017-07-16T05:33:09.822Z,99.99
2017-07-16T05:34:10.511Z,99.99
2017-07-16T05:35:11.199Z,99.99
2017-07-16T05:36:11.892Z,99.99
2017-07-16T05:37:12.587Z,99.99
2017-07-16T05:38:13.530Z,99.99
2017-07-16T05:39:14.214Z,99.99
2017-07-16T05:40:14.899Z,99.99
2017-07-16T05:41:15.595Z,99.99
2017-07-16T05:42:16.286Z,99.99
2017-07-16T05:43:17.225Z,99.99
2017-07-16T05:44:17.913Z,99.99
2017-07-16T05:45:18.603Z,99.99
2017-07-16T05:46:19.306Z,99.99
2017-07-16T05:47:19.989Z,99.99
2017-07-16T05:48:20.925Z,99.99
2017-07-16T05:49:21.615Z,99.99
2017-07-16T05:50:22.302Z,99.99
2017-07-16T05:51:22.990Z,99.99
2017-07-16T05:52:23.683Z,99.99
2017-07-16T05:53:24.627Z,99.99
2017-07-16T05:54:25.320Z,99.99
2017-07-16T05:55:26.008Z,99.99
2017-07-16T05:56:26.695Z,99.99
2017-07-16T05:57:27.385Z,99.99
2017-07-16T05:58:28.324Z,99.99
2017-07-16T05:59:29.012Z,99.99
2017-07-16T06:00:29.708Z,99.99
2017-07-16T06:01:30.398Z,99.99
2017-07-16T06:02:31.090Z,99.99
2017-07-16T06:03:32.028Z,99.99
2017-07-16T06:04:32.721Z,99.99
2017-07-16T06:05:33.415Z,99.99
2017-07-16T06:06:34.108Z,99.99
2017-07-16T06:07:34.800Z,99.99
2017-07-16T06:08:35.741Z,99.99
2017-07-16T06:09:36.433Z,99.99
2017-07-16T06:10:37.124Z,99.99
2017-07-16T06:11:37.819Z,99.99
2017-07-16T06:12:38.515Z,99.99
2017-07-16T06:13:39.455Z,99.99
2017-07-16T06:14:40.145Z,99.99
2017-07-16T06:15:40.844Z,99.99
2017-07-16T06:16:41.535Z,99.99
2017-07-16T06:17:42.234Z,99.99
2017-07-16T06:18:43.180Z,99.99
2017-07-16T06:19:43.881Z,99.99
2017-07-16T06:20:44.570Z,99.99
2017-07-16T06:21:45.256Z,99.99
2017-07-16T06:22:45.947Z,99.99
2017-07-16T06:23:46.889Z,99.99
2017-07-16T06:24:47.576Z,99.99
2017-07-16T06:25:48.267Z,99.99
2017-07-16T06:26:48.955Z,99.99
2017-07-16T06:27:49.655Z,99.99
2017-07-16T06:28:50.598Z,99.99
2017-07-16T06:29:51.294Z,99.99
2017-07-16T06:30:51.987Z,99.99
2017-07-16T06:31:52.678Z,99.99
2017-07-16T06:32:53.379Z,99.99
2017-07-16T06:33:54.315Z,99.99
2017-07-16T06:34:55.081Z,99.99
2017-07-16T06:35:55.767Z,99.99
2017-07-16T06:36:56.457Z,99.99
2017-07-16T06:37:57.146Z,99.99
2017-07-16T06:38:58.097Z,99.99
2017-07-16T06:39:58.785Z,99.99
2017-07-16T06:40:59.481Z,99.99
2017-07-16T06:42:00.171Z,99.99
2017-07-16T06:43:00.864Z,99.99
2017-07-16T06:44:01.812Z,99.99
2017-07-16T06:45:02.501Z,99.99
2017-07-16T06:46:03.187Z,99.99
2017-07-16T06:47:03.887Z,99.99
2017-07-16T06:48:04.572Z,99.99
2017-07-16T06:49:05.525Z,99.99
2017-07-16T06:50:06.207Z,99.99
2017-07-16T06:51:06.896Z,99.99
2017-07-16T06:52:07.593Z,99.99
2017-07-16T06:53:08.286Z,99.99
2017-07-16T06:54:09.224Z,99.99
2017-07-16T06:55:09.922Z,99.99
2017-07-16T06:56:10.620Z,99.99
2017-07-16T06:57:11.303Z,99.99
2017-07-16T06:58:11.993Z,99.99
2017-07-16T06:59:12.928Z,99.99
2017-07-16T07:00:13.616Z,99.99
2017-07-16T07:01:14.308Z,99.99
2017-07-16T07:02:15.000Z,99.99
2017-07-16T07:03:15.727Z,99.99
2017-07-16T07:04:16.632Z,99.99
2017-07-16T07:05:17.328Z,99.99
2017-07-16T07:06:18.020Z,99.96
2017-07-16T07:07:18.721Z,99.99
2017-07-16T07:08:19.413Z,99.99
2017-07-16T07:09:20.355Z,99.99
2017-07-16T07:10:21.059Z,99.99
2017-07-16T07:11:21.751Z,99.99
2017-07-16T07:12:22.445Z,99.99
2017-07-16T07:13:23.142Z,99.86
2017-07-16T07:14:24.078Z,98.52
2017-07-16T07:15:24.767Z,98.04
2017-07-16T07:16:25.462Z,96.51
2017-07-16T07:17:26.155Z,97.56
2017-07-16T07:18:26.843Z,96.75
2017-07-16T07:19:27.792Z,96.42
2017-07-16T07:20:28.485Z,96.51
2017-07-16T07:21:29.178Z,95.98
2017-07-16T07:22:29.869Z,96.08
2017-07-16T07:23:30.563Z,95.98
2017-07-16T07:24:31.505Z,93.21
2017-07-16T07:25:32.197Z,92.92
2017-07-16T07:26:32.886Z,93.12
2017-07-16T07:27:33.574Z,93.88
2017-07-16T07:28:34.273Z,94.65
2017-07-16T07:29:35.217Z,93.98
2017-07-16T07:30:35.909Z,94.07
2017-07-16T07:31:36.599Z,93.69
2017-07-16T07:32:37.299Z,94.17
2017-07-16T07:33:37.988Z,92.92
2017-07-16T07:34:38.932Z,88.85
2017-07-16T07:35:39.624Z,86.70
2017-07-16T07:36:40.314Z,86.08
2017-07-16T07:37:41.008Z,86.74
2017-07-16T07:38:41.699Z,86.36
2017-07-16T07:39:42.648Z,86.65
2017-07-16T07:40:43.335Z,84.92
2017-07-16T07:41:44.029Z,85.50
2017-07-16T07:42:44.725Z,85.31
2017-07-16T07:43:45.423Z,85.60
2017-07-16T07:44:46.371Z,84.26
2017-07-16T07:45:47.063Z,85.25
2017-07-16T07:46:47.754Z,85.50
2017-07-16T07:47:48.447Z,85.25
2017-07-16T07:48:49.144Z,85.88
2017-07-16T07:49:50.090Z,85.98
2017-07-16T07:50:50.782Z,86.55
2017-07-16T07:51:51.480Z,88.28
2017-07-16T07:52:52.170Z,87.32
2017-07-16T07:53:52.869Z,86.12
2017-07-16T07:54:53.810Z,85.45
2017-07-16T07:55:54.511Z,83.53
2017-07-16T07:56:55.212Z,83.82
2017-07-16T07:57:55.908Z,84.39
2017-07-16T07:58:56.600Z,82.57
2017-07-16T07:59:57.549Z,80.56
2017-07-16T08:00:58.215Z,81.33
2017-07-16T08:01:58.937Z,80.94
2017-07-16T08:02:59.628Z,81.71
2017-07-16T08:04:00.318Z,82.23
2017-07-16T08:05:01.261Z,82.76
2017-07-16T08:06:01.965Z,81.85
2017-07-16T08:07:02.656Z,81.62
2017-07-16T08:08:03.349Z,79.93
2017-07-16T08:09:04.047Z,80.79
2017-07-16T08:10:04.988Z,81.27
2017-07-16T08:11:05.681Z,81.46
2017-07-16T08:12:06.380Z,81.18
2017-07-16T08:13:07.071Z,79.93
2017-07-16T08:14:07.771Z,80.22
2017-07-16T08:15:08.715Z,79.83
2017-07-16T08:16:09.410Z,80.03
2017-07-16T08:17:10.112Z,79.83
2017-07-16T08:18:10.803Z,79.83
2017-07-16T08:19:11.496Z,80.12
2017-07-16T08:20:12.439Z,81.22
2017-07-16T08:21:13.133Z,78.63
2017-07-16T08:22:13.822Z,80.07
2017-07-16T08:23:14.515Z,80.07
2017-07-16T08:24:15.214Z,79.11
2017-07-16T08:25:16.161Z,79.88
2017-07-16T08:26:16.856Z,79.88
2017-07-16T08:27:17.565Z,79.01
2017-07-16T08:28:18.273Z,78.72
2017-07-16T08:29:18.967Z,78.38
2017-07-16T08:30:19.911Z,77.61
2017-07-16T08:31:20.608Z,76.46
2017-07-16T08:32:21.308Z,76.75
2017-07-16T08:33:22.005Z,76.37
2017-07-16T08:34:22.711Z,75.98
2017-07-16T08:35:23.655Z,75.89
2017-07-16T08:36:24.346Z,76.17
2017-07-16T08:37:25.038Z,75.40
2017-07-16T08:38:25.748Z,76.07
2017-07-16T08:39:26.449Z,76.27
2017-07-16T08:40:27.393Z,74.68
2017-07-16T08:41:28.094Z,74.93
2017-07-16T08:42:28.794Z,76.21
2017-07-16T08:43:29.481Z,76.40
2017-07-16T08:44:30.170Z,76.02
2017-07-16T08:45:31.115Z,76.69
2017-07-16T08:46:31.802Z,76.02
2017-07-16T08:47:32.497Z,75.73
2017-07-16T08:48:33.186Z,77.17
2017-07-16T08:49:33.880Z,74.96
2017-07-16T08:50:34.827Z,75.92
2017-07-16T08:51:35.577Z,75.82
2017-07-16T08:52:36.225Z,74.87
2017-07-16T08:53:36.941Z,74.68
2017-07-16T08:54:37.635Z,76.50
2017-07-16T08:55:38.578Z,76.02
2017-07-16T08:56:39.277Z,73.72
2017-07-16T08:57:39.971Z,73.85
2017-07-16T08:58:40.667Z,71.73
2017-07-16T08:59:41.363Z,71.45
2017-07-16T09:00:42.309Z,71.16
2017-07-16T09:01:43.002Z,71.25
2017-07-16T09:02:43.697Z,72.50
2017-07-16T09:03:44.393Z,72.22
2017-07-16T09:04:45.087Z,72.12
2017-07-16T09:05:46.030Z,71.29
2017-07-16T09:06:46.723Z,70.81
2017-07-16T09:07:47.426Z,69.75
2017-07-16T09:08:48.122Z,71.10
2017-07-16T09:09:48.815Z,71.29
2017-07-16T09:10:49.758Z,69.37
2017-07-16T09:11:50.449Z,68.60
2017-07-16T09:12:51.150Z,68.79
2017-07-16T09:13:51.840Z,68.25
2017-07-16T09:14:52.532Z,68.60
2017-07-16T09:15:53.488Z,68.79
2017-07-16T09:16:54.177Z,69.75
2017-07-16T09:17:54.871Z,68.63
2017-07-16T09:18:55.572Z,68.83
2017-07-16T09:19:56.266Z,68.44
2017-07-16T09:20:57.213Z,68.54
2017-07-16T09:21:57.909Z,69.02
2017-07-16T09:22:58.599Z,66.87
2017-07-16T09:23:59.292Z,66.91
2017-07-16T09:24:59.993Z,66.71
2017-07-16T09:26:00.938Z,66.61
2017-07-16T09:27:01.646Z,66.14
2017-07-16T09:28:02.339Z,67.00
2017-07-16T09:29:03.032Z,66.74
2017-07-16T09:30:03.732Z,65.37
2017-07-16T09:31:04.675Z,64.98
2017-07-16T09:32:05.367Z,65.56
2017-07-16T09:33:06.059Z,66.81
2017-07-16T09:34:06.757Z,65.30
2017-07-16T09:35:07.451Z,67.03
2017-07-16T09:36:08.405Z,67.42
2017-07-16T09:37:09.104Z,67.42
2017-07-16T09:38:09.808Z,67.45
2017-07-16T09:39:10.502Z,67.55
2017-07-16T09:40:11.206Z,66.10
2017-07-16T09:41:12.150Z,65.72
2017-07-16T09:42:12.850Z,65.72
2017-07-16T09:43:13.554Z,65.14
2017-07-16T09:44:14.248Z,65.33
2017-07-16T09:45:14.941Z,64.40
2017-07-16T09:46:15.886Z,62.64
2017-07-16T09:47:16.582Z,62.67
2017-07-16T09:48:17.284Z,61.77
2017-07-16T09:49:17.977Z,62.48
2017-07-16T09:50:18.712Z,60.91
2017-07-16T09:51:19.615Z,61.42
2017-07-16T09:52:20.312Z,61.32
2017-07-16T09:53:21.008Z,61.52
2017-07-16T09:54:21.702Z,61.22
2017-07-16T09:55:22.407Z,60.14
2017-07-16T09:56:23.354Z,60.36
2017-07-16T09:57:24.048Z,60.27
2017-07-16T09:58:24.743Z,60.65
2017-07-16T09:59:25.440Z,60.55
2017-07-16T10:00:26.135Z,59.69
2017-07-16T10:01:27.091Z,60.65
2017-07-16T10:02:27.785Z,60.39
2017-07-16T10:03:28.477Z,57.86
2017-07-16T10:04:29.174Z,58.15
2017-07-16T10:05:29.869Z,58.92
2017-07-16T10:06:30.825Z,58.34
2017-07-16T10:07:31.528Z,59.23
2017-07-16T10:08:32.221Z,59.04
2017-07-16T10:09:32.918Z,58.65
2017-07-16T10:10:33.613Z,57.02
2017-07-16T10:11:34.559Z,58.30
2017-07-16T10:12:35.259Z,57.92
2017-07-16T10:13:35.954Z,56.18
2017-07-16T10:14:36.661Z,55.89
2017-07-16T10:15:37.354Z,55.79
2017-07-16T10:16:38.056Z,56.40
2017-07-16T10:17:38.746Z,55.73
2017-07-16T10:18:39.442Z,54.96
2017-07-16T10:19:40.137Z,55.34
2017-07-16T10:20:40.831Z,52.73
2017-07-16T10:21:41.775Z,52.16
2017-07-16T10:22:42.479Z,53.13
2017-07-16T10:23:43.371Z,53.15
2017-07-16T10:24:44.080Z,52.83
2017-07-16T10:25:44.783Z,52.93
2017-07-16T10:26:45.719Z,52.19
2017-07-16T10:27:46.422Z,52.67
2017-07-16T10:28:47.109Z,54.79
2017-07-16T10:29:47.803Z,53.53
2017-07-16T10:30:48.500Z,53.61
2017-07-16T10:31:49.452Z,53.61
2017-07-16T10:32:50.144Z,53.61
2017-07-16T10:33:50.847Z,53.41
2017-07-16T10:34:51.547Z,54.88
2017-07-16T10:35:52.243Z,57.01
2017-07-16T10:36:53.188Z,56.81
2017-07-16T10:37:53.886Z,54.60
2017-07-16T10:38:54.581Z,53.92
2017-07-16T10:39:55.274Z,53.83
2017-07-16T10:40:55.981Z,54.79
2017-07-16T10:41:56.919Z,52.09
2017-07-16T10:42:57.615Z,52.45
2017-07-16T10:43:58.313Z,52.35
2017-07-16T10:44:59.009Z,52.06
2017-07-16T10:45:59.702Z,52.73
2017-07-16T10:47:00.658Z,54.60
2017-07-16T10:48:01.355Z,55.15
2017-07-16T10:49:02.046Z,53.70
2017-07-16T10:50:02.969Z,51.77
2017-07-16T10:51:03.661Z,51.97
2017-07-16T10:52:04.606Z,51.20
2017-07-16T10:53:05.306Z,52.25
2017-07-16T10:54:06.002Z,51.77
2017-07-16T10:55:06.697Z,53.51
2017-07-16T10:56:07.394Z,52.55
2017-07-16T10:57:08.340Z,53.70
2017-07-16T10:58:09.035Z,54.66
2017-07-16T10:59:09.730Z,54.88
2017-07-16T11:00:10.434Z,56.81
2017-07-16T11:01:11.128Z,55.27
2017-07-16T11:02:12.072Z,57.97
2017-07-16T11:03:12.774Z,55.30
2017-07-16T11:04:13.489Z,53.63
2017-07-16T11:05:14.187Z,52.09
2017-07-16T11:06:14.882Z,52.28
2017-07-16T11:07:15.829Z,51.12
2017-07-16T11:08:16.520Z,51.70
2017-07-16T11:09:17.223Z,51.80
2017-07-16T11:10:17.919Z,53.83
2017-07-16T11:11:18.618Z,53.83
2017-07-16T11:12:19.564Z,52.47
2017-07-16T11:13:20.267Z,53.05
2017-07-16T11:14:20.962Z,51.22
2017-07-16T11:15:21.665Z,50.62
2017-07-16T11:16:22.361Z,50.13
2017-07-16T11:17:23.308Z,49.39
2017-07-16T11:18:24.001Z,51.99
2017-07-16T11:19:24.697Z,55.36
2017-07-16T11:20:25.393Z,53.66
2017-07-16T11:21:26.089Z,52.21
2017-07-16T11:22:27.041Z,52.89
2017-07-16T11:23:27.752Z,51.05
2017-07-16T11:24:28.445Z,49.02
2017-07-16T11:25:29.143Z,49.51
2017-07-16T11:26:29.850Z,50.40
2017-07-16T11:27:30.791Z,50.69
2017-07-16T11:28:31.487Z,52.04
2017-07-16T11:29:32.180Z,51.78
2017-07-16T11:30:32.876Z,50.52
2017-07-16T11:31:33.569Z,51.49
2017-07-16T11:32:34.515Z,51.78
2017-07-16T11:33:35.221Z,51.87
2017-07-16T11:34:35.913Z,52.97
2017-07-16T11:35:36.614Z,51.81
2017-07-16T11:36:37.314Z,51.90
2017-07-16T11:37:38.015Z,47.55
2017-07-16T11:38:38.716Z,47.94
2017-07-16T11:39:39.418Z,49.02
2017-07-16T11:40:40.113Z,51.83
2017-07-16T11:41:40.815Z,51.54
2017-07-16T11:42:41.764Z,48.44
2017-07-16T11:43:42.455Z,45.91
2017-07-16T11:44:43.155Z,45.04
2017-07-16T11:45:43.852Z,46.97
2017-07-16T11:46:44.564Z,46.68
2017-07-16T11:47:45.514Z,47.07
2017-07-16T11:48:46.204Z,46.49
2017-07-16T11:49:46.905Z,45.74
2017-07-16T11:50:47.610Z,48.44
2017-07-16T11:51:48.307Z,47.02
2017-07-16T11:52:49.258Z,45.57
2017-07-16T11:53:49.956Z,44.77
2017-07-16T11:54:50.651Z,45.04
2017-07-16T11:55:51.355Z,46.51
2017-07-16T11:56:52.061Z,47.00
2017-07-16T11:57:53.013Z,50.18
2017-07-16T11:58:53.707Z,48.27
2017-07-16T11:59:54.408Z,45.16
2017-07-16T12:00:55.102Z,44.96
2017-07-16T12:01:55.800Z,46.70
2017-07-16T12:02:56.752Z,45.06
2017-07-16T12:03:57.448Z,44.38
2017-07-16T12:04:58.143Z,44.67
2017-07-16T12:05:58.840Z,46.22
2017-07-16T12:06:59.544Z,47.19
2017-07-16T12:08:00.491Z,45.98
2017-07-16T12:09:01.193Z,45.69
2017-07-16T12:10:01.899Z,45.42
2017-07-16T12:11:02.601Z,44.87
2017-07-16T12:12:03.295Z,45.93
2017-07-16T12:13:04.241Z,46.83
2017-07-16T12:14:04.938Z,49.82
2017-07-16T12:15:05.643Z,49.17
2017-07-16T12:16:06.346Z,47.99
2017-07-16T12:17:07.052Z,46.15
2017-07-16T12:18:08.002Z,44.89
2017-07-16T12:19:08.697Z,47.33
2017-07-16T12:20:09.411Z,48.69
2017-07-16T12:21:10.109Z,44.84
2017-07-16T12:22:10.805Z,43.87
2017-07-16T12:23:11.754Z,44.35
2017-07-16T12:24:12.451Z,45.42
2017-07-16T12:25:13.152Z,47.09
2017-07-16T12:26:13.856Z,45.71
2017-07-16T12:27:14.560Z,43.00
2017-07-16T12:28:15.503Z,46.89
2017-07-16T12:29:16.200Z,44.47
2017-07-16T12:30:16.898Z,44.86
2017-07-16T12:31:17.603Z,42.61
2017-07-16T12:32:18.303Z,43.99
2017-07-16T12:33:19.002Z,41.47
2017-07-16T12:34:19.701Z,40.50
2017-07-16T12:35:20.397Z,43.48
2017-07-16T12:36:21.109Z,42.90
2017-07-16T12:37:21.812Z,43.00
2017-07-16T12:38:22.759Z,42.24
2017-07-16T12:39:23.460Z,42.54
2017-07-16T12:40:24.165Z,42.41
2017-07-16T12:41:24.866Z,41.83
2017-07-16T12:42:25.561Z,42.24
2017-07-16T12:43:26.513Z,43.21
2017-07-16T12:44:27.210Z,45.65
2017-07-16T12:45:27.909Z,45.64
2017-07-16T12:46:28.619Z,48.74
2017-07-16T12:47:29.319Z,46.60
2017-07-16T12:48:30.274Z,47.09
2017-07-16T12:49:30.974Z,47.02
2017-07-16T12:50:31.668Z,41.78
2017-07-16T12:51:32.386Z,45.37
2017-07-16T12:52:33.077Z,42.65
2017-07-16T12:53:34.026Z,41.66
2017-07-16T12:54:34.728Z,42.34
2017-07-16T12:55:35.432Z,44.76
2017-07-16T12:56:36.126Z,41.95
2017-07-16T12:57:36.826Z,41.47
2017-07-16T12:58:37.776Z,41.56
2017-07-16T12:59:38.479Z,41.56
2017-07-16T13:00:39.172Z,41.86
2017-07-16T13:01:39.869Z,41.68